sensor_id;sensor_type;location;lat;lon;timestamp;P1;durP1;ratioP1;P2;durP2;ratioP2
34896;SDS011;43407;51.828;-2.298;2024-03-17T00:02:13;15.25;;;4.13;;
34896;SDS011;43407;51.828;-2.298;2024-03-17T00:04:38;17.92;;;4.68;;
34896;SDS011;43407;51.828;-2.298;2024-03-17T00:07:04;18.15;;;4.40;;
34896;SDS011;43407;51.828;-2.298;2024-03-17T00:09:29;20.95;;;4.45;;
34896;SDS011;43407;51.828;-2.298;2024-03-17T00:11:55;15.98;;;4.80;;
34896;SDS011;43407;51.828;-2.298;2024-03-17T00:14:20;19.98;;;5.30;;
34896;SDS011;43407;51.828;-2.298;2024-03-17T00:16:46;16.65;;;4.57;;
34896;SDS011;43407;51.828;-2.298;2024-03-17T00:19:13;20.35;;;4.78;;
34896;SDS011;43407;51.828;-2.298;2024-03-17T00:21:38;16.15;;;5.13;;
34896;SDS011;43407;51.828;-2.298;2024-03-17T00:24:05;15.60;;;4.55;;
34896;SDS011;43407;51.828;-2.298;2024-03-17T00:26:30;16.65;;;4.80;;
34896;SDS011;43407;51.828;-2.298;2024-03-17T00:28:56;17.17;;;5.22;;
34896;SDS011;43407;51.828;-2.298;2024-03-17T00:31:22;16.95;;;5.18;;
34896;SDS011;43407;51.828;-2.298;2024-03-17T00:33:51;19.80;;;5.05;;
34896;SDS011;43407;51.828;-2.298;2024-03-17T00:36:18;17.88;;;4.53;;
34896;SDS011;43407;51.828;-2.298;2024-03-17T00:38:44;17.63;;;4.50;;
34896;SDS011;43407;51.828;-2.298;2024-03-17T00:41:09;13.60;;;3.92;;
34896;SDS011;43407;51.828;-2.298;2024-03-17T00:43:34;17.77;;;4.70;;
34896;SDS011;43407;51.828;-2.298;2024-03-17T00:46:00;18.25;;;4.50;;
34896;SDS011;43407;51.828;-2.298;2024-03-17T00:48:25;16.70;;;4.00;;
34896;SDS011;43407;51.828;-2.298;2024-03-17T00:50:57;17.58;;;4.50;;
34896;SDS011;43407;51.828;-2.298;2024-03-17T00:53:23;20.60;;;4.40;;
34896;SDS011;43407;51.828;-2.298;2024-03-17T00:55:52;15.90;;;4.13;;
34896;SDS011;43407;51.828;-2.298;2024-03-17T00:58:18;18.17;;;3.65;;
34896;SDS011;43407;51.828;-2.298;2024-03-17T01:00:43;12.82;;;3.50;;
34896;SDS011;43407;51.828;-2.298;2024-03-17T01:03:08;17.55;;;3.78;;
34896;SDS011;43407;51.828;-2.298;2024-03-17T01:05:34;12.30;;;3.22;;
34896;SDS011;43407;51.828;-2.298;2024-03-17T01:07:59;13.38;;;3.00;;
34896;SDS011;43407;51.828;-2.298;2024-03-17T01:10:24;12.57;;;3.30;;
34896;SDS011;43407;51.828;-2.298;2024-03-17T01:12:50;9.30;;;3.00;;
34896;SDS011;43407;51.828;-2.298;2024-03-17T01:15:15;10.15;;;2.90;;
34896;SDS011;43407;51.828;-2.298;2024-03-17T01:17:40;14.05;;;3.15;;
34896;SDS011;43407;51.828;-2.298;2024-03-17T01:20:06;14.57;;;3.15;;
34896;SDS011;43407;51.828;-2.298;2024-03-17T01:22:32;11.80;;;2.70;;
34896;SDS011;43407;51.828;-2.298;2024-03-17T01:24:57;10.35;;;2.80;;
34896;SDS011;43407;51.828;-2.298;2024-03-17T01:27:22;9.85;;;2.83;;
34896;SDS011;43407;51.828;-2.298;2024-03-17T01:29:48;10.45;;;2.45;;
34896;SDS011;43407;51.828;-2.298;2024-03-17T01:32:13;16.27;;;3.38;;
34896;SDS011;43407;51.828;-2.298;2024-03-17T01:34:39;8.52;;;2.10;;
34896;SDS011;43407;51.828;-2.298;2024-03-17T01:37:05;7.85;;;2.45;;
34896;SDS011;43407;51.828;-2.298;2024-03-17T01:39:30;6.72;;;2.20;;
34896;SDS011;43407;51.828;-2.298;2024-03-17T01:41:57;6.38;;;2.17;;
34896;SDS011;43407;51.828;-2.298;2024-03-17T01:44:23;10.10;;;2.35;;
34896;SDS011;43407;51.828;-2.298;2024-03-17T01:46:49;6.18;;;2.17;;
34896;SDS011;43407;51.828;-2.298;2024-03-17T01:49:15;6.90;;;2.38;;
34896;SDS011;43407;51.828;-2.298;2024-03-17T01:51:41;7.43;;;2.15;;
34896;SDS011;43407;51.828;-2.298;2024-03-17T01:54:06;7.88;;;2.55;;
34896;SDS011;43407;51.828;-2.298;2024-03-17T01:56:32;5.90;;;2.55;;
34896;SDS011;43407;51.828;-2.298;2024-03-17T01:58:57;6.25;;;2.35;;
34896;SDS011;43407;51.828;-2.298;2024-03-17T02:01:23;4.97;;;2.03;;
34896;SDS011;43407;51.828;-2.298;2024-03-17T02:03:48;6.28;;;1.92;;
34896;SDS011;43407;51.828;-2.298;2024-03-17T02:06:13;6.53;;;2.05;;
34896;SDS011;43407;51.828;-2.298;2024-03-17T02:14:08;5.15;;;1.80;;
34896;SDS011;43407;51.828;-2.298;2024-03-17T02:16:34;4.30;;;1.58;;
34896;SDS011;43407;51.828;-2.298;2024-03-17T02:18:59;3.03;;;1.50;;
34896;SDS011;43407;51.828;-2.298;2024-03-17T02:21:24;4.20;;;1.70;;
34896;SDS011;43407;51.828;-2.298;2024-03-17T02:23:52;5.38;;;2.03;;
34896;SDS011;43407;51.828;-2.298;2024-03-17T02:26:17;4.90;;;1.95;;
34896;SDS011;43407;51.828;-2.298;2024-03-17T02:28:44;2.25;;;1.38;;
34896;SDS011;43407;51.828;-2.298;2024-03-17T02:31:10;4.57;;;1.70;;
34896;SDS011;43407;51.828;-2.298;2024-03-17T02:33:35;5.47;;;1.88;;
34896;SDS011;43407;51.828;-2.298;2024-03-17T02:36:01;3.85;;;1.70;;
34896;SDS011;43407;51.828;-2.298;2024-03-17T02:38:29;4.43;;;1.75;;
34896;SDS011;43407;51.828;-2.298;2024-03-17T02:41:12;4.60;;;1.60;;
34896;SDS011;43407;51.828;-2.298;2024-03-17T02:43:38;4.35;;;1.70;;
34896;SDS011;43407;51.828;-2.298;2024-03-17T02:46:03;3.38;;;1.48;;
34896;SDS011;43407;51.828;-2.298;2024-03-17T02:48:30;4.57;;;1.60;;
34896;SDS011;43407;51.828;-2.298;2024-03-17T02:50:55;3.70;;;1.35;;
34896;SDS011;43407;51.828;-2.298;2024-03-17T02:53:21;3.10;;;1.45;;
34896;SDS011;43407;51.828;-2.298;2024-03-17T02:55:46;6.85;;;2.20;;
34896;SDS011;43407;51.828;-2.298;2024-03-17T02:58:12;4.28;;;1.67;;
34896;SDS011;43407;51.828;-2.298;2024-03-17T03:00:37;3.38;;;1.75;;
34896;SDS011;43407;51.828;-2.298;2024-03-17T03:03:02;4.28;;;1.70;;
34896;SDS011;43407;51.828;-2.298;2024-03-17T03:05:28;3.20;;;1.67;;
34896;SDS011;43407;51.828;-2.298;2024-03-17T03:07:53;3.55;;;1.60;;
34896;SDS011;43407;51.828;-2.298;2024-03-17T03:10:18;4.10;;;1.52;;
34896;SDS011;43407;51.828;-2.298;2024-03-17T03:12:44;3.50;;;1.55;;
34896;SDS011;43407;51.828;-2.298;2024-03-17T03:15:09;5.07;;;1.88;;
34896;SDS011;43407;51.828;-2.298;2024-03-17T03:17:35;4.05;;;1.73;;
34896;SDS011;43407;51.828;-2.298;2024-03-17T03:20:00;6.43;;;1.63;;
34896;SDS011;43407;51.828;-2.298;2024-03-17T03:22:26;5.20;;;1.95;;
34896;SDS011;43407;51.828;-2.298;2024-03-17T03:24:52;3.40;;;2.00;;
34896;SDS011;43407;51.828;-2.298;2024-03-17T03:27:18;7.00;;;2.30;;
34896;SDS011;43407;51.828;-2.298;2024-03-17T03:29:43;3.53;;;1.88;;
34896;SDS011;43407;51.828;-2.298;2024-03-17T03:32:09;4.82;;;2.00;;
34896;SDS011;43407;51.828;-2.298;2024-03-17T03:34:34;4.65;;;1.98;;
34896;SDS011;43407;51.828;-2.298;2024-03-17T03:36:59;3.10;;;1.70;;
34896;SDS011;43407;51.828;-2.298;2024-03-17T03:39:24;2.97;;;1.90;;
34896;SDS011;43407;51.828;-2.298;2024-03-17T03:41:55;3.47;;;2.03;;
34896;SDS011;43407;51.828;-2.298;2024-03-17T03:44:21;4.07;;;2.00;;
34896;SDS011;43407;51.828;-2.298;2024-03-17T03:46:47;2.25;;;1.92;;
34896;SDS011;43407;51.828;-2.298;2024-03-17T03:49:13;2.25;;;1.67;;
34896;SDS011;43407;51.828;-2.298;2024-03-17T03:51:38;3.13;;;1.90;;
34896;SDS011;43407;51.828;-2.298;2024-03-17T03:54:04;2.85;;;1.70;;
34896;SDS011;43407;51.828;-2.298;2024-03-17T03:56:31;4.13;;;1.80;;
34896;SDS011;43407;51.828;-2.298;2024-03-17T03:58:56;2.28;;;1.60;;
34896;SDS011;43407;51.828;-2.298;2024-03-17T04:01:22;3.22;;;1.70;;
34896;SDS011;43407;51.828;-2.298;2024-03-17T04:03:47;3.72;;;1.50;;
34896;SDS011;43407;51.828;-2.298;2024-03-17T04:06:13;4.38;;;1.80;;
34896;SDS011;43407;51.828;-2.298;2024-03-17T04:08:40;3.30;;;1.77;;
34896;SDS011;43407;51.828;-2.298;2024-03-17T04:11:06;2.95;;;1.95;;
34896;SDS011;43407;51.828;-2.298;2024-03-17T04:13:32;3.22;;;1.80;;
34896;SDS011;43407;51.828;-2.298;2024-03-17T04:16:03;3.58;;;2.05;;
34896;SDS011;43407;51.828;-2.298;2024-03-17T04:18:29;4.13;;;2.10;;
34896;SDS011;43407;51.828;-2.298;2024-03-17T04:20:55;5.57;;;2.33;;
34896;SDS011;43407;51.828;-2.298;2024-03-17T04:23:21;2.45;;;2.08;;
34896;SDS011;43407;51.828;-2.298;2024-03-17T04:25:50;3.70;;;2.38;;
34896;SDS011;43407;51.828;-2.298;2024-03-17T04:28:15;5.25;;;2.35;;
34896;SDS011;43407;51.828;-2.298;2024-03-17T04:30:41;4.38;;;2.42;;
34896;SDS011;43407;51.828;-2.298;2024-03-17T04:33:07;3.05;;;2.05;;
34896;SDS011;43407;51.828;-2.298;2024-03-17T04:35:36;7.32;;;2.10;;
34896;SDS011;43407;51.828;-2.298;2024-03-17T04:38:01;3.22;;;2.30;;
34896;SDS011;43407;51.828;-2.298;2024-03-17T04:40:27;2.15;;;1.65;;
34896;SDS011;43407;51.828;-2.298;2024-03-17T04:42:52;2.78;;;2.10;;
34896;SDS011;43407;51.828;-2.298;2024-03-17T04:45:17;4.60;;;2.42;;
34896;SDS011;43407;51.828;-2.298;2024-03-17T04:47:43;3.78;;;2.08;;
34896;SDS011;43407;51.828;-2.298;2024-03-17T04:50:08;4.20;;;2.45;;
34896;SDS011;43407;51.828;-2.298;2024-03-17T04:52:33;6.70;;;2.33;;
34896;SDS011;43407;51.828;-2.298;2024-03-17T04:54:59;5.40;;;2.35;;
34896;SDS011;43407;51.828;-2.298;2024-03-17T04:57:24;5.20;;;2.63;;
34896;SDS011;43407;51.828;-2.298;2024-03-17T04:59:50;4.80;;;2.50;;
34896;SDS011;43407;51.828;-2.298;2024-03-17T05:02:15;4.80;;;2.47;;
34896;SDS011;43407;51.828;-2.298;2024-03-17T05:04:40;6.03;;;2.70;;
34896;SDS011;43407;51.828;-2.298;2024-03-17T05:07:07;4.03;;;2.30;;
34896;SDS011;43407;51.828;-2.298;2024-03-17T05:09:32;3.85;;;2.03;;
34896;SDS011;43407;51.828;-2.298;2024-03-17T05:11:57;4.40;;;2.50;;
34896;SDS011;43407;51.828;-2.298;2024-03-17T05:14:23;3.72;;;2.47;;
34896;SDS011;43407;51.828;-2.298;2024-03-17T05:16:52;5.13;;;2.30;;
34896;SDS011;43407;51.828;-2.298;2024-03-17T05:19:17;2.88;;;2.20;;
34896;SDS011;43407;51.828;-2.298;2024-03-17T05:21:43;3.63;;;2.42;;
34896;SDS011;43407;51.828;-2.298;2024-03-17T05:24:08;4.82;;;2.33;;
34896;SDS011;43407;51.828;-2.298;2024-03-17T05:26:34;5.85;;;2.55;;
34896;SDS011;43407;51.828;-2.298;2024-03-17T05:28:59;5.20;;;2.85;;
34896;SDS011;43407;51.828;-2.298;2024-03-17T05:31:24;5.20;;;2.10;;
34896;SDS011;43407;51.828;-2.298;2024-03-17T05:33:50;2.80;;;2.00;;
34896;SDS011;43407;51.828;-2.298;2024-03-17T05:36:17;3.95;;;1.98;;
34896;SDS011;43407;51.828;-2.298;2024-03-17T05:38:45;4.15;;;1.98;;
34896;SDS011;43407;51.828;-2.298;2024-03-17T05:41:10;2.85;;;2.22;;
34896;SDS011;43407;51.828;-2.298;2024-03-17T05:43:36;4.65;;;2.25;;
34896;SDS011;43407;51.828;-2.298;2024-03-17T05:46:03;4.22;;;2.38;;
34896;SDS011;43407;51.828;-2.298;2024-03-17T05:48:28;4.10;;;2.50;;
34896;SDS011;43407;51.828;-2.298;2024-03-17T05:50:54;5.30;;;2.70;;
34896;SDS011;43407;51.828;-2.298;2024-03-17T05:53:19;4.13;;;2.17;;
34896;SDS011;43407;51.828;-2.298;2024-03-17T05:55:45;4.28;;;2.53;;
34896;SDS011;43407;51.828;-2.298;2024-03-17T05:58:10;5.97;;;2.78;;
34896;SDS011;43407;51.828;-2.298;2024-03-17T06:00:37;6.45;;;2.40;;
34896;SDS011;43407;51.828;-2.298;2024-03-17T06:03:03;4.38;;;2.13;;
34896;SDS011;43407;51.828;-2.298;2024-03-17T06:05:38;4.63;;;2.08;;
34896;SDS011;43407;51.828;-2.298;2024-03-17T06:08:05;2.95;;;2.05;;
34896;SDS011;43407;51.828;-2.298;2024-03-17T06:10:33;4.40;;;2.20;;
34896;SDS011;43407;51.828;-2.298;2024-03-17T06:12:59;2.42;;;1.73;;
34896;SDS011;43407;51.828;-2.298;2024-03-17T06:15:25;3.53;;;1.90;;
34896;SDS011;43407;51.828;-2.298;2024-03-17T06:17:51;1.90;;;1.63;;
34896;SDS011;43407;51.828;-2.298;2024-03-17T06:20:17;2.75;;;1.58;;
34896;SDS011;43407;51.828;-2.298;2024-03-17T06:22:42;2.75;;;1.45;;
34896;SDS011;43407;51.828;-2.298;2024-03-17T06:25:08;3.05;;;1.75;;
34896;SDS011;43407;51.828;-2.298;2024-03-17T06:27:33;1.40;;;1.30;;
34896;SDS011;43407;51.828;-2.298;2024-03-17T06:30:01;1.83;;;1.30;;
34896;SDS011;43407;51.828;-2.298;2024-03-17T06:32:30;1.63;;;1.52;;
34896;SDS011;43407;51.828;-2.298;2024-03-17T06:34:56;1.60;;;1.33;;
34896;SDS011;43407;51.828;-2.298;2024-03-17T06:37:22;3.10;;;1.50;;
34896;SDS011;43407;51.828;-2.298;2024-03-17T06:39:48;1.52;;;1.42;;
34896;SDS011;43407;51.828;-2.298;2024-03-17T06:42:13;1.95;;;1.75;;
34896;SDS011;43407;51.828;-2.298;2024-03-17T06:44:39;3.75;;;1.80;;
34896;SDS011;43407;51.828;-2.298;2024-03-17T06:47:05;2.10;;;1.60;;
34896;SDS011;43407;51.828;-2.298;2024-03-17T06:49:30;3.05;;;1.70;;
34896;SDS011;43407;51.828;-2.298;2024-03-17T06:51:56;2.03;;;1.75;;
34896;SDS011;43407;51.828;-2.298;2024-03-17T06:54:21;1.98;;;1.20;;
34896;SDS011;43407;51.828;-2.298;2024-03-17T06:56:47;1.80;;;1.48;;
34896;SDS011;43407;51.828;-2.298;2024-03-17T06:59:12;1.45;;;1.35;;
34896;SDS011;43407;51.828;-2.298;2024-03-17T07:01:37;3.58;;;1.60;;
34896;SDS011;43407;51.828;-2.298;2024-03-17T07:04:03;2.53;;;1.60;;
34896;SDS011;43407;51.828;-2.298;2024-03-17T07:06:28;1.60;;;1.50;;
34896;SDS011;43407;51.828;-2.298;2024-03-17T07:08:54;1.88;;;1.40;;
34896;SDS011;43407;51.828;-2.298;2024-03-17T07:11:20;1.75;;;1.40;;
34896;SDS011;43407;51.828;-2.298;2024-03-17T07:13:48;1.45;;;1.23;;
34896;SDS011;43407;51.828;-2.298;2024-03-17T07:16:15;2.15;;;1.10;;
34896;SDS011;43407;51.828;-2.298;2024-03-17T07:18:40;1.40;;;1.30;;
34896;SDS011;43407;51.828;-2.298;2024-03-17T07:21:07;1.65;;;1.02;;
34896;SDS011;43407;51.828;-2.298;2024-03-17T07:23:35;0.88;;;0.88;;
34896;SDS011;43407;51.828;-2.298;2024-03-17T07:26:00;1.67;;;0.90;;
34896;SDS011;43407;51.828;-2.298;2024-03-17T07:28:26;0.95;;;0.90;;
34896;SDS011;43407;51.828;-2.298;2024-03-17T07:30:52;1.83;;;0.98;;
34896;SDS011;43407;51.828;-2.298;2024-03-17T07:33:18;0.93;;;0.93;;
34896;SDS011;43407;51.828;-2.298;2024-03-17T07:38:13;0.70;;;0.70;;
34896;SDS011;43407;51.828;-2.298;2024-03-17T07:40:39;1.30;;;1.10;;
34896;SDS011;43407;51.828;-2.298;2024-03-17T07:43:04;0.70;;;0.70;;
34896;SDS011;43407;51.828;-2.298;2024-03-17T07:45:29;1.33;;;0.85;;
34896;SDS011;43407;51.828;-2.298;2024-03-17T07:47:55;2.20;;;0.90;;
34896;SDS011;43407;51.828;-2.298;2024-03-17T07:50:20;1.30;;;0.90;;
34896;SDS011;43407;51.828;-2.298;2024-03-17T07:52:46;1.23;;;0.80;;
34896;SDS011;43407;51.828;-2.298;2024-03-17T07:55:11;1.02;;;0.70;;
34896;SDS011;43407;51.828;-2.298;2024-03-17T07:57:36;1.52;;;1.10;;
34896;SDS011;43407;51.828;-2.298;2024-03-17T08:00:02;0.60;;;0.60;;
34896;SDS011;43407;51.828;-2.298;2024-03-17T08:02:28;1.30;;;0.68;;
34896;SDS011;43407;51.828;-2.298;2024-03-17T08:04:54;2.60;;;1.10;;
34896;SDS011;43407;51.828;-2.298;2024-03-17T08:07:19;0.65;;;0.40;;
34896;SDS011;43407;51.828;-2.298;2024-03-17T08:09:44;0.70;;;0.50;;
34896;SDS011;43407;51.828;-2.298;2024-03-17T08:12:09;0.88;;;0.60;;
34896;SDS011;43407;51.828;-2.298;2024-03-17T08:14:35;0.70;;;0.50;;
34896;SDS011;43407;51.828;-2.298;2024-03-17T08:17:01;0.63;;;0.57;;
34896;SDS011;43407;51.828;-2.298;2024-03-17T08:19:26;1.02;;;0.60;;
34896;SDS011;43407;51.828;-2.298;2024-03-17T08:21:51;0.70;;;0.63;;
34896;SDS011;43407;51.828;-2.298;2024-03-17T08:24:17;0.50;;;0.50;;
34896;SDS011;43407;51.828;-2.298;2024-03-17T08:26:42;0.93;;;0.65;;
34896;SDS011;43407;51.828;-2.298;2024-03-17T08:29:10;0.90;;;0.50;;
34896;SDS011;43407;51.828;-2.298;2024-03-17T08:31:35;1.15;;;0.52;;
34896;SDS011;43407;51.828;-2.298;2024-03-17T08:34:02;0.57;;;0.50;;
34896;SDS011;43407;51.828;-2.298;2024-03-17T08:36:27;0.50;;;0.40;;
34896;SDS011;43407;51.828;-2.298;2024-03-17T08:38:53;0.52;;;0.50;;
34896;SDS011;43407;51.828;-2.298;2024-03-17T08:41:20;0.70;;;0.35;;
34896;SDS011;43407;51.828;-2.298;2024-03-17T08:43:45;0.43;;;0.40;;
34896;SDS011;43407;51.828;-2.298;2024-03-17T08:46:11;0.45;;;0.43;;
34896;SDS011;43407;51.828;-2.298;2024-03-17T08:48:40;0.40;;;0.40;;
34896;SDS011;43407;51.828;-2.298;2024-03-17T08:51:07;0.40;;;0.40;;
34896;SDS011;43407;51.828;-2.298;2024-03-17T08:53:32;0.40;;;0.30;;
34896;SDS011;43407;51.828;-2.298;2024-03-17T08:55:58;1.58;;;0.50;;
34896;SDS011;43407;51.828;-2.298;2024-03-17T08:58:24;0.30;;;0.30;;
34896;SDS011;43407;51.828;-2.298;2024-03-17T09:00:49;0.30;;;0.30;;
34896;SDS011;43407;51.828;-2.298;2024-03-17T09:03:16;0.68;;;0.50;;
34896;SDS011;43407;51.828;-2.298;2024-03-17T09:05:42;0.70;;;0.50;;
34896;SDS011;43407;51.828;-2.298;2024-03-17T09:08:11;0.47;;;0.30;;
34896;SDS011;43407;51.828;-2.298;2024-03-17T09:10:40;1.30;;;0.40;;
34896;SDS011;43407;51.828;-2.298;2024-03-17T09:13:05;0.30;;;0.30;;
34896;SDS011;43407;51.828;-2.298;2024-03-17T09:15:30;0.52;;;0.52;;
34896;SDS011;43407;51.828;-2.298;2024-03-17T09:17:56;0.80;;;0.80;;
34896;SDS011;43407;51.828;-2.298;2024-03-17T09:20:21;2.55;;;1.20;;
34896;SDS011;43407;51.828;-2.298;2024-03-17T09:22:46;0.60;;;0.60;;
34896;SDS011;43407;51.828;-2.298;2024-03-17T09:25:11;0.47;;;0.40;;
34896;SDS011;43407;51.828;-2.298;2024-03-17T09:27:37;0.95;;;0.40;;
34896;SDS011;43407;51.828;-2.298;2024-03-17T09:30:03;0.40;;;0.40;;
34896;SDS011;43407;51.828;-2.298;2024-03-17T09:32:31;0.40;;;0.20;;
34896;SDS011;43407;51.828;-2.298;2024-03-17T09:34:56;0.70;;;0.40;;
34896;SDS011;43407;51.828;-2.298;2024-03-17T09:37:22;0.20;;;0.20;;
34896;SDS011;43407;51.828;-2.298;2024-03-17T09:39:48;0.30;;;0.30;;
34896;SDS011;43407;51.828;-2.298;2024-03-17T09:42:17;0.40;;;0.40;;
34896;SDS011;43407;51.828;-2.298;2024-03-17T09:44:45;0.50;;;0.30;;
34896;SDS011;43407;51.828;-2.298;2024-03-17T09:47:11;0.80;;;0.45;;
34896;SDS011;43407;51.828;-2.298;2024-03-17T09:49:41;0.32;;;0.20;;
34896;SDS011;43407;51.828;-2.298;2024-03-17T09:52:06;0.30;;;0.22;;
34896;SDS011;43407;51.828;-2.298;2024-03-17T09:54:37;0.35;;;0.35;;
34896;SDS011;43407;51.828;-2.298;2024-03-17T09:57:06;0.40;;;0.40;;
34896;SDS011;43407;51.828;-2.298;2024-03-17T09:59:34;0.55;;;0.35;;
34896;SDS011;43407;51.828;-2.298;2024-03-17T10:01:59;0.20;;;0.17;;
34896;SDS011;43407;51.828;-2.298;2024-03-17T10:04:33;0.30;;;0.30;;
34896;SDS011;43407;51.828;-2.298;2024-03-17T10:06:59;0.20;;;0.20;;
34896;SDS011;43407;51.828;-2.298;2024-03-17T10:09:24;0.40;;;0.40;;
34896;SDS011;43407;51.828;-2.298;2024-03-17T10:11:49;0.30;;;0.30;;
34896;SDS011;43407;51.828;-2.298;2024-03-17T10:14:16;1.00;;;0.45;;
34896;SDS011;43407;51.828;-2.298;2024-03-17T10:16:42;0.20;;;0.20;;
34896;SDS011;43407;51.828;-2.298;2024-03-17T10:19:22;0.30;;;0.30;;
34896;SDS011;43407;51.828;-2.298;2024-03-17T10:21:48;0.30;;;0.30;;
34896;SDS011;43407;51.828;-2.298;2024-03-17T10:24:24;0.38;;;0.30;;
34896;SDS011;43407;51.828;-2.298;2024-03-17T10:31:57;0.50;;;0.30;;
34896;SDS011;43407;51.828;-2.298;2024-03-17T10:34:23;0.98;;;0.70;;
34896;SDS011;43407;51.828;-2.298;2024-03-17T10:39:32;0.38;;;0.32;;
34896;SDS011;43407;51.828;-2.298;2024-03-17T10:42:02;0.40;;;0.30;;
34896;SDS011;43407;51.828;-2.298;2024-03-17T10:44:29;0.65;;;0.50;;
34896;SDS011;43407;51.828;-2.298;2024-03-17T10:46:54;0.40;;;0.40;;
34896;SDS011;43407;51.828;-2.298;2024-03-17T10:49:22;1.13;;;0.40;;
34896;SDS011;43407;51.828;-2.298;2024-03-17T10:51:49;1.10;;;0.30;;
34896;SDS011;43407;51.828;-2.298;2024-03-17T10:54:20;0.57;;;0.32;;
34896;SDS011;43407;51.828;-2.298;2024-03-17T10:56:49;1.13;;;0.65;;
34896;SDS011;43407;51.828;-2.298;2024-03-17T10:59:16;0.32;;;0.32;;
34896;SDS011;43407;51.828;-2.298;2024-03-17T11:01:43;0.52;;;0.45;;
34896;SDS011;43407;51.828;-2.298;2024-03-17T11:04:09;0.50;;;0.40;;
34896;SDS011;43407;51.828;-2.298;2024-03-17T11:06:37;0.50;;;0.30;;
34896;SDS011;43407;51.828;-2.298;2024-03-17T11:09:02;0.52;;;0.20;;
34896;SDS011;43407;51.828;-2.298;2024-03-17T11:11:35;0.25;;;0.25;;
34896;SDS011;43407;51.828;-2.298;2024-03-17T11:14:17;0.30;;;0.30;;
34896;SDS011;43407;51.828;-2.298;2024-03-17T11:16:47;0.75;;;0.38;;
34896;SDS011;43407;51.828;-2.298;2024-03-17T11:19:16;0.45;;;0.35;;
34896;SDS011;43407;51.828;-2.298;2024-03-17T11:21:42;0.77;;;0.30;;
34896;SDS011;43407;51.828;-2.298;2024-03-17T11:24:08;0.30;;;0.30;;
34896;SDS011;43407;51.828;-2.298;2024-03-17T11:26:46;0.30;;;0.30;;
34896;SDS011;43407;51.828;-2.298;2024-03-17T11:29:27;0.43;;;0.35;;
34896;SDS011;43407;51.828;-2.298;2024-03-17T11:31:52;0.40;;;0.30;;
34896;SDS011;43407;51.828;-2.298;2024-03-17T11:34:30;0.77;;;0.40;;
34896;SDS011;43407;51.828;-2.298;2024-03-17T11:36:56;0.47;;;0.28;;
34896;SDS011;43407;51.828;-2.298;2024-03-17T11:39:45;0.38;;;0.30;;
34896;SDS011;43407;51.828;-2.298;2024-03-17T11:42:06;0.35;;;0.28;;
34896;SDS011;43407;51.828;-2.298;2024-03-17T11:44:39;0.50;;;0.35;;
34896;SDS011;43407;51.828;-2.298;2024-03-17T11:47:07;0.77;;;0.30;;
34896;SDS011;43407;51.828;-2.298;2024-03-17T11:52:11;0.93;;;0.35;;
34896;SDS011;43407;51.828;-2.298;2024-03-17T11:54:38;1.00;;;0.30;;
34896;SDS011;43407;51.828;-2.298;2024-03-17T11:57:05;0.32;;;0.20;;
34896;SDS011;43407;51.828;-2.298;2024-03-17T11:59:30;0.40;;;0.20;;
34896;SDS011;43407;51.828;-2.298;2024-03-17T12:01:56;2.17;;;0.98;;
34896;SDS011;43407;51.828;-2.298;2024-03-17T12:04:22;1.25;;;0.63;;
34896;SDS011;43407;51.828;-2.298;2024-03-17T12:11:41;2.45;;;0.75;;
34896;SDS011;43407;51.828;-2.298;2024-03-17T12:14:16;4.25;;;0.85;;
34896;SDS011;43407;51.828;-2.298;2024-03-17T12:16:59;3.42;;;1.10;;
34896;SDS011;43407;51.828;-2.298;2024-03-17T12:19:25;2.67;;;1.08;;
34896;SDS011;43407;51.828;-2.298;2024-03-17T12:21:51;3.65;;;0.95;;
34896;SDS011;43407;51.828;-2.298;2024-03-17T12:24:18;4.65;;;0.70;;
34896;SDS011;43407;51.828;-2.298;2024-03-17T12:26:44;2.67;;;0.85;;
34896;SDS011;43407;51.828;-2.298;2024-03-17T12:34:36;2.47;;;0.80;;
34896;SDS011;43407;51.828;-2.298;2024-03-17T12:37:02;2.83;;;0.90;;
34896;SDS011;43407;51.828;-2.298;2024-03-17T12:39:28;5.93;;;1.15;;
34896;SDS011;43407;51.828;-2.298;2024-03-17T12:47:17;3.50;;;1.13;;
34896;SDS011;43407;51.828;-2.298;2024-03-17T12:49:46;3.85;;;1.27;;
34896;SDS011;43407;51.828;-2.298;2024-03-17T12:52:19;3.25;;;0.93;;
34896;SDS011;43407;51.828;-2.298;2024-03-17T12:54:45;4.28;;;1.05;;
34896;SDS011;43407;51.828;-2.298;2024-03-17T12:57:19;3.15;;;0.93;;
34896;SDS011;43407;51.828;-2.298;2024-03-17T13:00:22;3.80;;;1.02;;
34896;SDS011;43407;51.828;-2.298;2024-03-17T13:02:56;7.63;;;1.30;;
34896;SDS011;43407;51.828;-2.298;2024-03-17T13:05:22;6.85;;;0.80;;
34896;SDS011;43407;51.828;-2.298;2024-03-17T13:07:48;1.40;;;0.80;;
34896;SDS011;43407;51.828;-2.298;2024-03-17T13:10:14;3.45;;;1.20;;
34896;SDS011;43407;51.828;-2.298;2024-03-17T13:12:40;6.10;;;1.20;;
34896;SDS011;43407;51.828;-2.298;2024-03-17T13:15:06;4.70;;;1.40;;
34896;SDS011;43407;51.828;-2.298;2024-03-17T13:17:34;5.35;;;1.30;;
34896;SDS011;43407;51.828;-2.298;2024-03-17T13:20:00;8.60;;;1.77;;
34896;SDS011;43407;51.828;-2.298;2024-03-17T13:22:26;6.13;;;1.60;;
34896;SDS011;43407;51.828;-2.298;2024-03-17T13:24:51;5.95;;;1.83;;
34896;SDS011;43407;51.828;-2.298;2024-03-17T13:27:16;5.30;;;1.48;;
34896;SDS011;43407;51.828;-2.298;2024-03-17T13:29:42;5.22;;;1.52;;
34896;SDS011;43407;51.828;-2.298;2024-03-17T13:32:11;2.80;;;1.25;;
34896;SDS011;43407;51.828;-2.298;2024-03-17T13:34:37;5.82;;;1.27;;
34896;SDS011;43407;51.828;-2.298;2024-03-17T13:37:02;5.97;;;1.50;;
34896;SDS011;43407;51.828;-2.298;2024-03-17T13:39:31;9.68;;;1.83;;
34896;SDS011;43407;51.828;-2.298;2024-03-17T13:41:58;9.10;;;2.22;;
34896;SDS011;43407;51.828;-2.298;2024-03-17T13:44:28;9.90;;;2.25;;
34896;SDS011;43407;51.828;-2.298;2024-03-17T13:46:53;9.00;;;2.28;;
34896;SDS011;43407;51.828;-2.298;2024-03-17T13:49:19;6.63;;;1.83;;
34896;SDS011;43407;51.828;-2.298;2024-03-17T13:51:44;8.43;;;1.80;;
34896;SDS011;43407;51.828;-2.298;2024-03-17T13:54:10;5.97;;;1.45;;
34896;SDS011;43407;51.828;-2.298;2024-03-17T13:56:35;6.32;;;1.95;;
34896;SDS011;43407;51.828;-2.298;2024-03-17T13:59:00;7.73;;;1.60;;
34896;SDS011;43407;51.828;-2.298;2024-03-17T14:01:26;4.82;;;1.40;;
34896;SDS011;43407;51.828;-2.298;2024-03-17T14:03:51;4.40;;;1.15;;
34896;SDS011;43407;51.828;-2.298;2024-03-17T14:06:18;4.22;;;1.48;;
34896;SDS011;43407;51.828;-2.298;2024-03-17T14:08:43;3.17;;;1.27;;
34896;SDS011;43407;51.828;-2.298;2024-03-17T14:11:08;3.97;;;1.27;;
34896;SDS011;43407;51.828;-2.298;2024-03-17T14:13:34;2.67;;;1.08;;
34896;SDS011;43407;51.828;-2.298;2024-03-17T14:16:01;3.92;;;1.10;;
34896;SDS011;43407;51.828;-2.298;2024-03-17T14:18:27;4.22;;;1.00;;
34896;SDS011;43407;51.828;-2.298;2024-03-17T14:20:52;5.55;;;1.08;;
34896;SDS011;43407;51.828;-2.298;2024-03-17T14:23:18;3.50;;;1.08;;
34896;SDS011;43407;51.828;-2.298;2024-03-17T14:25:43;3.13;;;0.93;;
34896;SDS011;43407;51.828;-2.298;2024-03-17T14:28:08;3.80;;;1.02;;
34896;SDS011;43407;51.828;-2.298;2024-03-17T14:30:34;2.17;;;0.80;;
34896;SDS011;43407;51.828;-2.298;2024-03-17T14:32:59;4.90;;;1.00;;
34896;SDS011;43407;51.828;-2.298;2024-03-17T14:35:24;2.28;;;0.82;;
34896;SDS011;43407;51.828;-2.298;2024-03-17T14:37:51;2.22;;;0.63;;
34896;SDS011;43407;51.828;-2.298;2024-03-17T14:40:18;1.63;;;0.60;;
34896;SDS011;43407;51.828;-2.298;2024-03-17T14:42:48;1.10;;;0.47;;
34896;SDS011;43407;51.828;-2.298;2024-03-17T14:45:13;1.60;;;0.85;;
34896;SDS011;43407;51.828;-2.298;2024-03-17T14:47:38;3.00;;;0.65;;
34896;SDS011;43407;51.828;-2.298;2024-03-17T14:50:04;2.92;;;1.00;;
34896;SDS011;43407;51.828;-2.298;2024-03-17T14:52:30;2.50;;;0.80;;
34896;SDS011;43407;51.828;-2.298;2024-03-17T14:54:55;6.57;;;1.00;;
34896;SDS011;43407;51.828;-2.298;2024-03-17T14:57:21;2.40;;;0.80;;
34896;SDS011;43407;51.828;-2.298;2024-03-17T14:59:47;2.70;;;0.95;;
34896;SDS011;43407;51.828;-2.298;2024-03-17T15:02:12;1.42;;;0.73;;
34896;SDS011;43407;51.828;-2.298;2024-03-17T15:04:37;2.20;;;0.77;;